Kezdőlap
METAR-TAF:

METAR-TAF

Repülőterek :

Annecy, Franciaország

földrajzi szélesség: 45-55-45N, földrajzi hosszúság: 006-05-56E, magasság: 463 m

Jelenlegi meteorológiai megfigyelések

A jelentés 21 perccel ezelõtt készült, 12:30 UTC
Szélcsend
Hőmérséklet 15°C
Páratartalom 59%
Légköri nyomás 1011 hPa
Látótávolság 10 km, vagy több
felhőtlen 1500 m magasságban, és nincs gomolyfelhõ

METAR: LFLP 151230Z AUTO 00000KT CAVOK 15/07 Q1011 NOSIG

Idő: 13:51 (12:51 UTC)

Előrejelzés

A jelentés 4 órával és 51 perccel ezelõtt készült, 08:00 UTC
Az előrejelzés 15-én 09 óra UTC és 16-én 09 óra UTC között érvényes
Különbözõ irányokból fújó szél 3 kt
Látótávolság 10 km, vagy több
felhőtlen 1500 m magasságban, és nincs gomolyfelhõ
15-én 09 óra UTC és 15-én 15 óra UTC között ideiglenes
Szakadozott felhőzet 7000 lábon

TAF: LFLP 150800Z 1509/1609 VRB03KT CAVOK TEMPO 1509/1515 BKN070

Meteorológiai megfigyelések és előrejelzések több, mint 4000 repülőtéren (METAR és TAF jelentéseket).

A térképen piros és sárga pontok jelzik az elérhető meteorológiai állomásokat.

Mozgassa az egeret a pont fölött, hogy megjelenjen az állomás neve.

Azután kattintson az időjárási megfigyelések és előrejelzések megtekintéséhez.

A térkép megváltoztatása: kattintson a fekete keresztel jelölt zöld gombra ráközelítéshez, a vonallal jelölt zöld gombra távolításhoz, vagy a zöld nyilakra a szomszédos térképek eléréséhez.


METAR-TAF: